sensor_id;sensor_type;location;lat;lon;timestamp;temperature;humidity
11666;DHT22;5889;51.350;6.708;2022-08-19T00:00:46;20.80;99.90
11666;DHT22;5889;51.350;6.708;2022-08-19T00:03:15;20.80;99.90
11666;DHT22;5889;51.350;6.708;2022-08-19T00:05:41;20.70;99.90
11666;DHT22;5889;51.350;6.708;2022-08-19T00:08:10;20.70;99.90
11666;DHT22;5889;51.350;6.708;2022-08-19T00:10:37;20.80;99.90
11666;DHT22;5889;51.350;6.708;2022-08-19T00:13:03;20.80;99.90
11666;DHT22;5889;51.350;6.708;2022-08-19T00:15:30;20.70;99.90
11666;DHT22;5889;51.350;6.708;2022-08-19T00:17:57;20.60;99.90
11666;DHT22;5889;51.350;6.708;2022-08-19T00:20:24;20.60;99.90
11666;DHT22;5889;51.350;6.708;2022-08-19T00:22:51;20.60;99.90
11666;DHT22;5889;51.350;6.708;2022-08-19T00:25:21;20.50;99.90
11666;DHT22;5889;51.350;6.708;2022-08-19T00:27:48;20.60;99.90
11666;DHT22;5889;51.350;6.708;2022-08-19T00:30:15;20.60;99.90
11666;DHT22;5889;51.350;6.708;2022-08-19T00:32:42;20.60;99.90
11666;DHT22;5889;51.350;6.708;2022-08-19T00:35:09;20.70;99.90
11666;DHT22;5889;51.350;6.708;2022-08-19T00:37:37;20.60;99.90
11666;DHT22;5889;51.350;6.708;2022-08-19T00:40:05;20.60;99.90
11666;DHT22;5889;51.350;6.708;2022-08-19T00:42:34;20.70;99.90
11666;DHT22;5889;51.350;6.708;2022-08-19T00:45:01;20.60;99.90
11666;DHT22;5889;51.350;6.708;2022-08-19T00:47:28;20.30;99.90
11666;DHT22;5889;51.350;6.708;2022-08-19T00:49:57;20.10;99.90
11666;DHT22;5889;51.350;6.708;2022-08-19T00:52:28;20.10;99.90
11666;DHT22;5889;51.350;6.708;2022-08-19T00:54:56;20.10;99.90
11666;DHT22;5889;51.350;6.708;2022-08-19T00:57:28;20.10;99.90
11666;DHT22;5889;51.350;6.708;2022-08-19T00:59:59;20.10;99.90
11666;DHT22;5889;51.350;6.708;2022-08-19T01:02:28;20.20;99.90
11666;DHT22;5889;51.350;6.708;2022-08-19T01:04:56;20.20;99.90
11666;DHT22;5889;51.350;6.708;2022-08-19T01:07:23;20.20;99.90
11666;DHT22;5889;51.350;6.708;2022-08-19T01:09:50;20.30;99.90
11666;DHT22;5889;51.350;6.708;2022-08-19T01:12:18;20.30;99.90
11666;DHT22;5889;51.350;6.708;2022-08-19T01:14:45;20.30;99.90
11666;DHT22;5889;51.350;6.708;2022-08-19T01:17:15;20.20;99.90
11666;DHT22;5889;51.350;6.708;2022-08-19T01:19:45;20.20;99.90
11666;DHT22;5889;51.350;6.708;2022-08-19T01:22:35;20.10;99.90
11666;DHT22;5889;51.350;6.708;2022-08-19T01:25:03;20.10;99.90
11666;DHT22;5889;51.350;6.708;2022-08-19T01:27:37;20.00;99.90
11666;DHT22;5889;51.350;6.708;2022-08-19T01:30:06;20.00;99.90
11666;DHT22;5889;51.350;6.708;2022-08-19T01:32:33;20.00;99.90
11666;DHT22;5889;51.350;6.708;2022-08-19T01:35:00;20.00;99.90
11666;DHT22;5889;51.350;6.708;2022-08-19T01:37:28;19.90;99.90
11666;DHT22;5889;51.350;6.708;2022-08-19T01:39:57;19.80;99.90
11666;DHT22;5889;51.350;6.708;2022-08-19T01:42:24;19.80;99.90
11666;DHT22;5889;51.350;6.708;2022-08-19T01:44:51;19.80;99.90
11666;DHT22;5889;51.350;6.708;2022-08-19T01:47:17;19.80;99.90
11666;DHT22;5889;51.350;6.708;2022-08-19T01:49:45;19.70;99.90
11666;DHT22;5889;51.350;6.708;2022-08-19T01:52:11;19.70;99.90
11666;DHT22;5889;51.350;6.708;2022-08-19T01:54:38;19.70;99.90
11666;DHT22;5889;51.350;6.708;2022-08-19T01:57:09;19.70;99.90
11666;DHT22;5889;51.350;6.708;2022-08-19T01:59:37;19.70;99.90
11666;DHT22;5889;51.350;6.708;2022-08-19T02:02:05;19.60;99.90
11666;DHT22;5889;51.350;6.708;2022-08-19T02:04:33;19.50;99.90
11666;DHT22;5889;51.350;6.708;2022-08-19T02:07:00;19.50;99.90
11666;DHT22;5889;51.350;6.708;2022-08-19T02:09:27;19.50;99.90
11666;DHT22;5889;51.350;6.708;2022-08-19T02:11:54;19.50;99.90
11666;DHT22;5889;51.350;6.708;2022-08-19T02:14:23;19.50;99.90
11666;DHT22;5889;51.350;6.708;2022-08-19T02:16:49;19.50;99.90
11666;DHT22;5889;51.350;6.708;2022-08-19T02:19:16;19.40;99.90
11666;DHT22;5889;51.350;6.708;2022-08-19T02:21:43;19.40;99.90
11666;DHT22;5889;51.350;6.708;2022-08-19T02:24:10;19.30;99.90
11666;DHT22;5889;51.350;6.708;2022-08-19T02:26:37;19.20;99.90
11666;DHT22;5889;51.350;6.708;2022-08-19T02:29:04;19.10;99.90
11666;DHT22;5889;51.350;6.708;2022-08-19T02:31:32;19.00;99.90
11666;DHT22;5889;51.350;6.708;2022-08-19T02:33:59;19.00;99.90
11666;DHT22;5889;51.350;6.708;2022-08-19T02:36:26;19.10;99.90
11666;DHT22;5889;51.350;6.708;2022-08-19T02:38:54;19.10;99.90
11666;DHT22;5889;51.350;6.708;2022-08-19T02:41:21;19.10;99.90
11666;DHT22;5889;51.350;6.708;2022-08-19T02:43:48;19.10;99.90
11666;DHT22;5889;51.350;6.708;2022-08-19T02:46:18;19.00;99.90
11666;DHT22;5889;51.350;6.708;2022-08-19T02:48:48;19.00;99.90
11666;DHT22;5889;51.350;6.708;2022-08-19T02:51:16;19.00;99.90
11666;DHT22;5889;51.350;6.708;2022-08-19T02:53:44;19.00;99.90
11666;DHT22;5889;51.350;6.708;2022-08-19T02:56:10;19.00;99.90
11666;DHT22;5889;51.350;6.708;2022-08-19T02:58:37;19.00;99.90
11666;DHT22;5889;51.350;6.708;2022-08-19T03:01:04;19.00;99.90
11666;DHT22;5889;51.350;6.708;2022-08-19T03:03:31;19.00;99.90
11666;DHT22;5889;51.350;6.708;2022-08-19T03:06:09;19.00;99.90
11666;DHT22;5889;51.350;6.708;2022-08-19T03:08:36;19.00;99.90
11666;DHT22;5889;51.350;6.708;2022-08-19T03:11:04;19.10;99.90
11666;DHT22;5889;51.350;6.708;2022-08-19T03:13:31;19.10;99.90
11666;DHT22;5889;51.350;6.708;2022-08-19T03:15:58;19.10;99.90
11666;DHT22;5889;51.350;6.708;2022-08-19T03:18:25;19.20;99.90
11666;DHT22;5889;51.350;6.708;2022-08-19T03:20:53;19.20;99.90
11666;DHT22;5889;51.350;6.708;2022-08-19T03:23:23;19.20;99.90
11666;DHT22;5889;51.350;6.708;2022-08-19T03:25:51;19.10;99.90
11666;DHT22;5889;51.350;6.708;2022-08-19T03:28:19;19.00;99.90
11666;DHT22;5889;51.350;6.708;2022-08-19T03:30:56;18.90;99.90
11666;DHT22;5889;51.350;6.708;2022-08-19T03:33:24;18.80;99.90
11666;DHT22;5889;51.350;6.708;2022-08-19T03:36:02;18.70;99.90
11666;DHT22;5889;51.350;6.708;2022-08-19T03:38:31;18.70;99.90
11666;DHT22;5889;51.350;6.708;2022-08-19T03:41:02;18.60;99.90
11666;DHT22;5889;51.350;6.708;2022-08-19T03:43:32;18.70;99.90
11666;DHT22;5889;51.350;6.708;2022-08-19T03:46:03;18.70;99.90
11666;DHT22;5889;51.350;6.708;2022-08-19T03:48:31;18.80;99.90
11666;DHT22;5889;51.350;6.708;2022-08-19T03:50:59;18.90;99.90
11666;DHT22;5889;51.350;6.708;2022-08-19T03:53:27;18.90;99.90
11666;DHT22;5889;51.350;6.708;2022-08-19T03:55:56;19.00;99.90
11666;DHT22;5889;51.350;6.708;2022-08-19T03:58:25;19.10;99.90
11666;DHT22;5889;51.350;6.708;2022-08-19T04:00:53;19.20;99.90
11666;DHT22;5889;51.350;6.708;2022-08-19T04:03:20;19.10;99.90
11666;DHT22;5889;51.350;6.708;2022-08-19T04:05:47;19.20;99.90
11666;DHT22;5889;51.350;6.708;2022-08-19T04:08:14;19.20;99.90
11666;DHT22;5889;51.350;6.708;2022-08-19T04:10:46;19.20;99.90
11666;DHT22;5889;51.350;6.708;2022-08-19T04:13:15;19.20;99.90
11666;DHT22;5889;51.350;6.708;2022-08-19T04:15:44;19.20;99.90
11666;DHT22;5889;51.350;6.708;2022-08-19T04:18:12;19.20;99.90
11666;DHT22;5889;51.350;6.708;2022-08-19T04:20:44;19.20;99.90
11666;DHT22;5889;51.350;6.708;2022-08-19T04:23:12;19.20;99.90
11666;DHT22;5889;51.350;6.708;2022-08-19T04:25:42;19.20;99.90
11666;DHT22;5889;51.350;6.708;2022-08-19T04:28:10;19.20;99.90
11666;DHT22;5889;51.350;6.708;2022-08-19T04:30:40;19.20;99.90
11666;DHT22;5889;51.350;6.708;2022-08-19T04:33:08;19.20;99.90
11666;DHT22;5889;51.350;6.708;2022-08-19T04:35:38;19.00;99.90
11666;DHT22;5889;51.350;6.708;2022-08-19T04:38:06;18.90;99.90
11666;DHT22;5889;51.350;6.708;2022-08-19T04:40:34;18.80;99.90
11666;DHT22;5889;51.350;6.708;2022-08-19T04:43:23;18.80;99.90
11666;DHT22;5889;51.350;6.708;2022-08-19T04:45:51;18.90;99.90
11666;DHT22;5889;51.350;6.708;2022-08-19T04:48:19;18.90;99.90
11666;DHT22;5889;51.350;6.708;2022-08-19T04:50:51;18.90;99.90
11666;DHT22;5889;51.350;6.708;2022-08-19T04:53:23;19.00;99.90
11666;DHT22;5889;51.350;6.708;2022-08-19T04:55:50;19.00;99.90
11666;DHT22;5889;51.350;6.708;2022-08-19T04:58:17;19.00;99.90
11666;DHT22;5889;51.350;6.708;2022-08-19T05:00:44;19.10;99.90
11666;DHT22;5889;51.350;6.708;2022-08-19T05:03:12;19.10;99.90
11666;DHT22;5889;51.350;6.708;2022-08-19T05:05:43;19.10;99.90
11666;DHT22;5889;51.350;6.708;2022-08-19T05:08:10;19.20;99.90
11666;DHT22;5889;51.350;6.708;2022-08-19T05:10:37;19.20;99.90
11666;DHT22;5889;51.350;6.708;2022-08-19T05:13:05;19.30;99.90
11666;DHT22;5889;51.350;6.708;2022-08-19T05:15:31;19.30;99.90
11666;DHT22;5889;51.350;6.708;2022-08-19T05:17:58;19.40;99.90
11666;DHT22;5889;51.350;6.708;2022-08-19T05:20:44;19.50;99.90
11666;DHT22;5889;51.350;6.708;2022-08-19T05:23:28;19.50;99.90
11666;DHT22;5889;51.350;6.708;2022-08-19T05:25:56;19.50;99.90
11666;DHT22;5889;51.350;6.708;2022-08-19T05:28:22;19.50;99.90
11666;DHT22;5889;51.350;6.708;2022-08-19T05:30:49;19.50;99.90
11666;DHT22;5889;51.350;6.708;2022-08-19T05:33:17;19.50;99.90
11666;DHT22;5889;51.350;6.708;2022-08-19T05:35:45;19.50;99.90
11666;DHT22;5889;51.350;6.708;2022-08-19T05:38:14;19.50;99.90
11666;DHT22;5889;51.350;6.708;2022-08-19T05:40:41;19.60;99.90
11666;DHT22;5889;51.350;6.708;2022-08-19T05:43:13;19.60;99.90
11666;DHT22;5889;51.350;6.708;2022-08-19T05:45:41;19.70;99.90
11666;DHT22;5889;51.350;6.708;2022-08-19T05:48:09;19.70;99.90
11666;DHT22;5889;51.350;6.708;2022-08-19T05:50:37;19.80;99.90
11666;DHT22;5889;51.350;6.708;2022-08-19T05:53:05;19.80;99.90
11666;DHT22;5889;51.350;6.708;2022-08-19T05:55:32;19.90;99.90
11666;DHT22;5889;51.350;6.708;2022-08-19T05:57:59;20.10;99.90
11666;DHT22;5889;51.350;6.708;2022-08-19T06:00:27;20.20;99.90
11666;DHT22;5889;51.350;6.708;2022-08-19T06:02:56;20.30;99.90
11666;DHT22;5889;51.350;6.708;2022-08-19T06:05:25;20.40;99.90
11666;DHT22;5889;51.350;6.708;2022-08-19T06:07:52;20.40;99.90
11666;DHT22;5889;51.350;6.708;2022-08-19T06:10:21;20.50;99.90
11666;DHT22;5889;51.350;6.708;2022-08-19T06:12:48;20.60;99.90
11666;DHT22;5889;51.350;6.708;2022-08-19T06:15:15;20.70;99.90
11666;DHT22;5889;51.350;6.708;2022-08-19T06:17:42;20.80;99.90
11666;DHT22;5889;51.350;6.708;2022-08-19T06:20:12;20.90;99.90
11666;DHT22;5889;51.350;6.708;2022-08-19T06:22:42;20.90;99.90
11666;DHT22;5889;51.350;6.708;2022-08-19T06:25:10;21.00;99.90
11666;DHT22;5889;51.350;6.708;2022-08-19T06:27:38;21.00;99.90
11666;DHT22;5889;51.350;6.708;2022-08-19T06:30:06;20.90;99.90
11666;DHT22;5889;51.350;6.708;2022-08-19T06:32:33;20.90;99.90
11666;DHT22;5889;51.350;6.708;2022-08-19T06:35:00;21.00;99.90
11666;DHT22;5889;51.350;6.708;2022-08-19T06:37:27;21.00;99.90
11666;DHT22;5889;51.350;6.708;2022-08-19T06:39:54;21.10;99.90
11666;DHT22;5889;51.350;6.708;2022-08-19T06:42:21;21.30;99.90
11666;DHT22;5889;51.350;6.708;2022-08-19T06:44:49;21.30;99.90
11666;DHT22;5889;51.350;6.708;2022-08-19T06:47:19;21.30;99.90
11666;DHT22;5889;51.350;6.708;2022-08-19T06:49:46;21.30;99.90
11666;DHT22;5889;51.350;6.708;2022-08-19T06:52:13;21.30;99.90
11666;DHT22;5889;51.350;6.708;2022-08-19T06:54:41;21.20;99.90
11666;DHT22;5889;51.350;6.708;2022-08-19T06:57:08;21.30;99.90
11666;DHT22;5889;51.350;6.708;2022-08-19T06:59:40;21.30;99.90
11666;DHT22;5889;51.350;6.708;2022-08-19T07:02:08;21.40;99.90
11666;DHT22;5889;51.350;6.708;2022-08-19T07:04:36;21.50;99.90
11666;DHT22;5889;51.350;6.708;2022-08-19T07:07:06;21.60;99.90
11666;DHT22;5889;51.350;6.708;2022-08-19T07:09:35;21.80;99.90
11666;DHT22;5889;51.350;6.708;2022-08-19T07:12:05;21.80;99.90
11666;DHT22;5889;51.350;6.708;2022-08-19T07:14:34;21.90;99.90
11666;DHT22;5889;51.350;6.708;2022-08-19T07:17:03;22.00;99.90
11666;DHT22;5889;51.350;6.708;2022-08-19T07:19:32;22.00;99.90
11666;DHT22;5889;51.350;6.708;2022-08-19T07:22:01;22.10;99.90
11666;DHT22;5889;51.350;6.708;2022-08-19T07:24:29;22.10;99.90
11666;DHT22;5889;51.350;6.708;2022-08-19T07:26:59;22.20;99.90
11666;DHT22;5889;51.350;6.708;2022-08-19T07:29:29;22.30;99.90
11666;DHT22;5889;51.350;6.708;2022-08-19T07:31:59;22.30;99.90
11666;DHT22;5889;51.350;6.708;2022-08-19T07:34:28;22.20;99.90
11666;DHT22;5889;51.350;6.708;2022-08-19T07:36:57;22.20;99.90
11666;DHT22;5889;51.350;6.708;2022-08-19T07:39:28;22.20;99.90
11666;DHT22;5889;51.350;6.708;2022-08-19T07:41:56;22.30;99.90
11666;DHT22;5889;51.350;6.708;2022-08-19T07:44:24;22.40;99.90
11666;DHT22;5889;51.350;6.708;2022-08-19T07:46:54;22.60;99.90
11666;DHT22;5889;51.350;6.708;2022-08-19T07:49:22;22.70;99.90
11666;DHT22;5889;51.350;6.708;2022-08-19T07:51:52;22.70;99.90
11666;DHT22;5889;51.350;6.708;2022-08-19T07:54:22;22.90;99.90
11666;DHT22;5889;51.350;6.708;2022-08-19T07:56:49;23.00;99.90
11666;DHT22;5889;51.350;6.708;2022-08-19T07:59:19;23.10;99.90
11666;DHT22;5889;51.350;6.708;2022-08-19T08:01:46;23.00;99.90
11666;DHT22;5889;51.350;6.708;2022-08-19T08:04:14;22.90;99.90
11666;DHT22;5889;51.350;6.708;2022-08-19T08:06:58;23.00;99.90
11666;DHT22;5889;51.350;6.708;2022-08-19T08:09:44;23.10;99.90
11666;DHT22;5889;51.350;6.708;2022-08-19T08:12:14;23.10;99.90
11666;DHT22;5889;51.350;6.708;2022-08-19T08:14:45;23.20;99.90
11666;DHT22;5889;51.350;6.708;2022-08-19T08:17:14;23.10;99.90
11666;DHT22;5889;51.350;6.708;2022-08-19T08:19:42;23.00;99.90
11666;DHT22;5889;51.350;6.708;2022-08-19T08:22:10;22.90;99.90
11666;DHT22;5889;51.350;6.708;2022-08-19T08:25:03;23.00;99.90
11666;DHT22;5889;51.350;6.708;2022-08-19T08:27:31;23.20;99.90
11666;DHT22;5889;51.350;6.708;2022-08-19T08:29:58;23.40;99.90
11666;DHT22;5889;51.350;6.708;2022-08-19T08:32:25;23.60;99.90
11666;DHT22;5889;51.350;6.708;2022-08-19T08:34:52;23.70;99.90
11666;DHT22;5889;51.350;6.708;2022-08-19T08:37:19;23.80;99.90
11666;DHT22;5889;51.350;6.708;2022-08-19T08:39:47;23.90;99.90
11666;DHT22;5889;51.350;6.708;2022-08-19T08:42:21;24.00;99.80
11666;DHT22;5889;51.350;6.708;2022-08-19T08:44:56;24.00;99.90
11666;DHT22;5889;51.350;6.708;2022-08-19T08:47:26;24.10;99.90
11666;DHT22;5889;51.350;6.708;2022-08-19T08:49:57;24.10;99.90
11666;DHT22;5889;51.350;6.708;2022-08-19T08:52:28;24.30;99.70
11666;DHT22;5889;51.350;6.708;2022-08-19T08:55:00;24.40;99.50
11666;DHT22;5889;51.350;6.708;2022-08-19T08:57:35;24.70;98.50
11666;DHT22;5889;51.350;6.708;2022-08-19T09:00:08;24.90;97.90
11666;DHT22;5889;51.350;6.708;2022-08-19T09:02:36;25.00;97.50
11666;DHT22;5889;51.350;6.708;2022-08-19T09:05:03;25.00;97.40
11666;DHT22;5889;51.350;6.708;2022-08-19T09:07:41;25.20;96.90
11666;DHT22;5889;51.350;6.708;2022-08-19T09:10:15;25.20;97.00
11666;DHT22;5889;51.350;6.708;2022-08-19T09:12:55;25.10;97.30
11666;DHT22;5889;51.350;6.708;2022-08-19T09:15:29;25.10;97.50
11666;DHT22;5889;51.350;6.708;2022-08-19T09:18:00;25.20;97.30
11666;DHT22;5889;51.350;6.708;2022-08-19T09:20:28;25.40;97.30
11666;DHT22;5889;51.350;6.708;2022-08-19T09:22:57;25.60;96.90
11666;DHT22;5889;51.350;6.708;2022-08-19T09:25:24;25.70;96.10
11666;DHT22;5889;51.350;6.708;2022-08-19T09:27:53;26.00;95.40
11666;DHT22;5889;51.350;6.708;2022-08-19T09:30:24;26.00;95.50
11666;DHT22;5889;51.350;6.708;2022-08-19T09:32:52;26.00;95.10
11666;DHT22;5889;51.350;6.708;2022-08-19T09:35:21;26.00;95.20
11666;DHT22;5889;51.350;6.708;2022-08-19T09:37:49;26.00;95.20
11666;DHT22;5889;51.350;6.708;2022-08-19T09:40:17;26.10;94.50
11666;DHT22;5889;51.350;6.708;2022-08-19T09:42:44;26.00;94.70
11666;DHT22;5889;51.350;6.708;2022-08-19T09:45:14;26.00;94.80
11666;DHT22;5889;51.350;6.708;2022-08-19T09:47:41;26.00;94.40
11666;DHT22;5889;51.350;6.708;2022-08-19T09:50:10;26.30;94.50
11666;DHT22;5889;51.350;6.708;2022-08-19T09:52:38;26.40;93.90
11666;DHT22;5889;51.350;6.708;2022-08-19T09:55:07;26.60;93.50
11666;DHT22;5889;51.350;6.708;2022-08-19T09:57:34;26.50;93.30
11666;DHT22;5889;51.350;6.708;2022-08-19T10:00:02;26.40;93.20
11666;DHT22;5889;51.350;6.708;2022-08-19T10:02:30;26.30;93.20
11666;DHT22;5889;51.350;6.708;2022-08-19T10:04:57;26.40;93.00
11666;DHT22;5889;51.350;6.708;2022-08-19T10:07:42;26.60;92.90
11666;DHT22;5889;51.350;6.708;2022-08-19T10:10:09;26.60;92.60
11666;DHT22;5889;51.350;6.708;2022-08-19T10:12:37;26.60;92.70
11666;DHT22;5889;51.350;6.708;2022-08-19T10:15:05;26.70;92.30
11666;DHT22;5889;51.350;6.708;2022-08-19T10:17:33;26.70;92.20
11666;DHT22;5889;51.350;6.708;2022-08-19T10:20:01;26.60;92.40
11666;DHT22;5889;51.350;6.708;2022-08-19T10:22:29;26.70;92.20
11666;DHT22;5889;51.350;6.708;2022-08-19T10:24:56;26.60;92.30
11666;DHT22;5889;51.350;6.708;2022-08-19T10:27:23;26.50;92.40
11666;DHT22;5889;51.350;6.708;2022-08-19T10:29:50;26.70;92.40
11666;DHT22;5889;51.350;6.708;2022-08-19T10:32:17;27.10;92.20
11666;DHT22;5889;51.350;6.708;2022-08-19T10:34:45;27.30;91.40
11666;DHT22;5889;51.350;6.708;2022-08-19T10:37:12;27.30;91.40
11666;DHT22;5889;51.350;6.708;2022-08-19T10:39:39;27.50;91.20
11666;DHT22;5889;51.350;6.708;2022-08-19T10:42:06;27.70;90.30
11666;DHT22;5889;51.350;6.708;2022-08-19T10:44:36;27.50;90.60
11666;DHT22;5889;51.350;6.708;2022-08-19T10:47:03;27.80;90.70
11666;DHT22;5889;51.350;6.708;2022-08-19T10:49:31;28.10;90.10
11666;DHT22;5889;51.350;6.708;2022-08-19T10:52:20;28.00;90.00
11666;DHT22;5889;51.350;6.708;2022-08-19T10:55:01;28.10;90.10
11666;DHT22;5889;51.350;6.708;2022-08-19T10:57:45;28.10;89.50
11666;DHT22;5889;51.350;6.708;2022-08-19T11:00:13;28.10;89.40
11666;DHT22;5889;51.350;6.708;2022-08-19T11:02:41;27.90;88.90
11666;DHT22;5889;51.350;6.708;2022-08-19T11:05:08;27.50;89.40
11666;DHT22;5889;51.350;6.708;2022-08-19T11:07:38;27.40;89.60
11666;DHT22;5889;51.350;6.708;2022-08-19T11:10:06;27.40;89.90
11666;DHT22;5889;51.350;6.708;2022-08-19T11:12:33;27.70;88.60
11666;DHT22;5889;51.350;6.708;2022-08-19T11:15:00;27.50;88.00
11666;DHT22;5889;51.350;6.708;2022-08-19T11:17:27;27.50;88.80
11666;DHT22;5889;51.350;6.708;2022-08-19T11:19:57;27.30;88.90
11666;DHT22;5889;51.350;6.708;2022-08-19T11:22:24;27.30;89.10
11666;DHT22;5889;51.350;6.708;2022-08-19T11:24:52;27.30;87.50
11666;DHT22;5889;51.350;6.708;2022-08-19T11:27:19;27.20;86.40
11666;DHT22;5889;51.350;6.708;2022-08-19T11:29:46;27.10;86.20
11666;DHT22;5889;51.350;6.708;2022-08-19T11:32:13;27.30;87.10
11666;DHT22;5889;51.350;6.708;2022-08-19T11:34:41;27.40;86.70
11666;DHT22;5889;51.350;6.708;2022-08-19T11:37:08;27.40;86.60
11666;DHT22;5889;51.350;6.708;2022-08-19T11:39:35;27.70;86.50
11666;DHT22;5889;51.350;6.708;2022-08-19T11:42:05;27.80;85.30
11666;DHT22;5889;51.350;6.708;2022-08-19T11:44:53;28.10;84.80
11666;DHT22;5889;51.350;6.708;2022-08-19T11:47:20;28.20;84.80
11666;DHT22;5889;51.350;6.708;2022-08-19T11:49:47;28.00;84.70
11666;DHT22;5889;51.350;6.708;2022-08-19T11:52:14;27.50;83.60
11666;DHT22;5889;51.350;6.708;2022-08-19T11:54:41;27.10;86.10
11666;DHT22;5889;51.350;6.708;2022-08-19T11:57:09;26.90;87.20
11666;DHT22;5889;51.350;6.708;2022-08-19T11:59:36;26.90;86.50
11666;DHT22;5889;51.350;6.708;2022-08-19T12:02:03;27.00;85.80
11666;DHT22;5889;51.350;6.708;2022-08-19T12:04:30;27.20;85.30
11666;DHT22;5889;51.350;6.708;2022-08-19T12:06:57;27.40;84.20
11666;DHT22;5889;51.350;6.708;2022-08-19T12:09:23;27.30;85.70
11666;DHT22;5889;51.350;6.708;2022-08-19T12:11:50;27.10;86.30
11666;DHT22;5889;51.350;6.708;2022-08-19T12:14:18;27.00;86.00
11666;DHT22;5889;51.350;6.708;2022-08-19T12:16:47;27.30;85.40
11666;DHT22;5889;51.350;6.708;2022-08-19T12:19:13;27.30;83.90
11666;DHT22;5889;51.350;6.708;2022-08-19T12:21:41;27.30;83.40
11666;DHT22;5889;51.350;6.708;2022-08-19T12:24:08;27.40;82.90
11666;DHT22;5889;51.350;6.708;2022-08-19T12:26:35;27.50;82.30
11666;DHT22;5889;51.350;6.708;2022-08-19T12:29:02;27.70;80.40
11666;DHT22;5889;51.350;6.708;2022-08-19T12:31:31;27.60;79.10
11666;DHT22;5889;51.350;6.708;2022-08-19T12:33:58;27.50;79.90
11666;DHT22;5889;51.350;6.708;2022-08-19T12:36:28;27.50;81.10
11666;DHT22;5889;51.350;6.708;2022-08-19T12:38:57;27.50;81.40
11666;DHT22;5889;51.350;6.708;2022-08-19T12:41:24;27.70;82.20
11666;DHT22;5889;51.350;6.708;2022-08-19T12:43:52;27.70;82.00
11666;DHT22;5889;51.350;6.708;2022-08-19T12:46:19;27.80;81.60
11666;DHT22;5889;51.350;6.708;2022-08-19T12:48:47;27.70;81.30
11666;DHT22;5889;51.350;6.708;2022-08-19T12:51:16;27.70;80.50
11666;DHT22;5889;51.350;6.708;2022-08-19T12:53:45;27.50;79.10
11666;DHT22;5889;51.350;6.708;2022-08-19T12:56:12;27.60;79.50
11666;DHT22;5889;51.350;6.708;2022-08-19T12:58:41;27.80;78.20
11666;DHT22;5889;51.350;6.708;2022-08-19T13:01:09;28.10;76.80
11666;DHT22;5889;51.350;6.708;2022-08-19T13:03:37;28.30;75.00
11666;DHT22;5889;51.350;6.708;2022-08-19T13:06:06;28.60;73.80
11666;DHT22;5889;51.350;6.708;2022-08-19T13:08:33;28.70;73.20
11666;DHT22;5889;51.350;6.708;2022-08-19T13:11:07;28.30;76.40
11666;DHT22;5889;51.350;6.708;2022-08-19T13:13:38;28.20;75.90
11666;DHT22;5889;51.350;6.708;2022-08-19T13:16:08;28.20;74.70
11666;DHT22;5889;51.350;6.708;2022-08-19T13:18:35;28.00;74.30
11666;DHT22;5889;51.350;6.708;2022-08-19T13:21:03;27.90;75.20
11666;DHT22;5889;51.350;6.708;2022-08-19T13:23:32;28.00;76.80
11666;DHT22;5889;51.350;6.708;2022-08-19T13:26:00;28.30;76.60
11666;DHT22;5889;51.350;6.708;2022-08-19T13:28:28;28.70;76.30
11666;DHT22;5889;51.350;6.708;2022-08-19T13:31:16;29.00;74.80
11666;DHT22;5889;51.350;6.708;2022-08-19T13:34:01;29.40;74.20
11666;DHT22;5889;51.350;6.708;2022-08-19T13:36:28;29.50;74.30
11666;DHT22;5889;51.350;6.708;2022-08-19T13:38:57;29.50;74.60
11666;DHT22;5889;51.350;6.708;2022-08-19T13:41:24;29.30;73.70
11666;DHT22;5889;51.350;6.708;2022-08-19T13:43:52;29.10;75.10
11666;DHT22;5889;51.350;6.708;2022-08-19T13:46:19;29.10;74.90
11666;DHT22;5889;51.350;6.708;2022-08-19T13:48:47;29.30;74.50
11666;DHT22;5889;51.350;6.708;2022-08-19T13:51:14;29.50;73.40
11666;DHT22;5889;51.350;6.708;2022-08-19T13:53:42;29.00;73.90
11666;DHT22;5889;51.350;6.708;2022-08-19T13:56:14;28.50;75.40
11666;DHT22;5889;51.350;6.708;2022-08-19T13:58:41;28.20;76.50
11666;DHT22;5889;51.350;6.708;2022-08-19T14:01:09;28.10;76.40
11666;DHT22;5889;51.350;6.708;2022-08-19T14:03:37;28.20;76.80
11666;DHT22;5889;51.350;6.708;2022-08-19T14:06:04;28.40;76.60
11666;DHT22;5889;51.350;6.708;2022-08-19T14:08:31;28.50;76.80
11666;DHT22;5889;51.350;6.708;2022-08-19T14:10:58;28.60;76.20
11666;DHT22;5889;51.350;6.708;2022-08-19T14:13:27;28.60;76.80
11666;DHT22;5889;51.350;6.708;2022-08-19T14:15:54;28.30;78.60
11666;DHT22;5889;51.350;6.708;2022-08-19T14:18:20;28.00;79.10
11666;DHT22;5889;51.350;6.708;2022-08-19T14:20:47;28.10;78.80
11666;DHT22;5889;51.350;6.708;2022-08-19T14:23:14;28.30;78.00
11666;DHT22;5889;51.350;6.708;2022-08-19T14:25:42;28.30;79.10
11666;DHT22;5889;51.350;6.708;2022-08-19T14:28:09;28.50;79.20
11666;DHT22;5889;51.350;6.708;2022-08-19T14:30:38;28.40;78.60
11666;DHT22;5889;51.350;6.708;2022-08-19T14:33:06;28.20;79.40
11666;DHT22;5889;51.350;6.708;2022-08-19T14:35:34;28.00;80.10
11666;DHT22;5889;51.350;6.708;2022-08-19T14:38:01;27.90;77.80
11666;DHT22;5889;51.350;6.708;2022-08-19T14:40:29;27.90;75.60
11666;DHT22;5889;51.350;6.708;2022-08-19T14:42:59;27.80;76.10
11666;DHT22;5889;51.350;6.708;2022-08-19T14:45:30;28.00;76.50
11666;DHT22;5889;51.350;6.708;2022-08-19T14:47:58;28.20;76.40
11666;DHT22;5889;51.350;6.708;2022-08-19T14:50:26;28.20;76.20
11666;DHT22;5889;51.350;6.708;2022-08-19T14:52:58;28.40;74.70
11666;DHT22;5889;51.350;6.708;2022-08-19T14:55:25;28.40;73.50
11666;DHT22;5889;51.350;6.708;2022-08-19T14:57:53;28.40;72.90
11666;DHT22;5889;51.350;6.708;2022-08-19T15:00:20;28.30;73.40
11666;DHT22;5889;51.350;6.708;2022-08-19T15:02:48;28.20;72.80
11666;DHT22;5889;51.350;6.708;2022-08-19T15:05:16;28.10;74.60
11666;DHT22;5889;51.350;6.708;2022-08-19T15:07:43;28.20;74.00
11666;DHT22;5889;51.350;6.708;2022-08-19T15:10:13;28.20;74.80
11666;DHT22;5889;51.350;6.708;2022-08-19T15:12:40;28.20;76.00
11666;DHT22;5889;51.350;6.708;2022-08-19T15:15:10;28.30;75.30
11666;DHT22;5889;51.350;6.708;2022-08-19T15:17:39;28.20;74.70
11666;DHT22;5889;51.350;6.708;2022-08-19T15:20:07;28.20;75.50
11666;DHT22;5889;51.350;6.708;2022-08-19T15:22:35;28.30;74.60
11666;DHT22;5889;51.350;6.708;2022-08-19T15:25:04;28.60;73.40
11666;DHT22;5889;51.350;6.708;2022-08-19T15:27:31;28.70;73.90
11666;DHT22;5889;51.350;6.708;2022-08-19T15:29:58;28.70;73.30
11666;DHT22;5889;51.350;6.708;2022-08-19T15:32:25;28.60;73.80
11666;DHT22;5889;51.350;6.708;2022-08-19T15:34:53;28.60;74.80
11666;DHT22;5889;51.350;6.708;2022-08-19T15:37:20;28.60;73.40
11666;DHT22;5889;51.350;6.708;2022-08-19T15:39:50;28.40;72.10
11666;DHT22;5889;51.350;6.708;2022-08-19T15:42:16;28.40;72.20
11666;DHT22;5889;51.350;6.708;2022-08-19T15:44:44;28.30;71.00
11666;DHT22;5889;51.350;6.708;2022-08-19T15:47:11;28.40;69.30
11666;DHT22;5889;51.350;6.708;2022-08-19T15:49:38;28.30;69.90
11666;DHT22;5889;51.350;6.708;2022-08-19T15:52:05;28.10;71.30
11666;DHT22;5889;51.350;6.708;2022-08-19T15:54:33;27.90;72.60